Time;durP1;ratioP1;P1;durP2;ratioP2;P2;SDS_P1;SDS_P2;PMS_P1;PMS_P2;Temp;Humidity;BMP_temperature;BMP_pressure;BME280_temperature;BME280_humidity;BME280_pressure;Samples;Min_cycle;Max_cycle;Signal;HPM_P1;HPM_P2
2022/04/12 00:01:07;;;;;;;2.67;1.90;;;;;;;9.52;69.29;99215.78;6284706;22;20029;-75
2022/04/12 00:03:33;;;;;;;2.67;2.00;;;;;;;9.42;69.41;99204.97;6231442;22;20023;-75
2022/04/12 00:05:59;;;;;;;4.18;1.60;;;;;;;9.40;69.30;99196.25;6255741;22;20152;-73
2022/04/12 00:08:24;;;;;;;2.35;1.65;;;;;;;9.48;69.86;99206.53;6255842;22;20362;-74
2022/04/12 00:10:50;;;;;;;2.63;1.90;;;;;;;9.40;70.05;99188.88;6255093;22;20007;-73
2022/04/12 00:13:20;;;;;;;2.70;1.52;;;;;;;9.46;69.53;99195.06;6257230;22;20006;-75
2022/04/12 00:15:48;;;;;;;1.83;1.40;;;;;;;9.44;69.70;99200.03;6284132;22;20057;-75
2022/04/12 00:20:58;;;;;;;;;;;;;;;9.42;69.93;99203.03;6282788;22;20010;-74
2022/04/12 00:23:24;;;;;;;4.68;2.17;;;;;;;9.34;69.56;99197.41;6255518;22;19930;-75
2022/04/12 00:26:00;;;;;;;;;;;;;;;;;;;;;
2022/04/12 00:28:28;;;;;;;3.53;1.92;;;;;;;9.26;70.37;99186.00;6283078;22;20015;-75
2022/04/12 00:30:56;;;;;;;3.25;1.52;;;;;;;9.30;70.37;99201.78;6257389;22;20487;-75
2022/04/12 00:33:29;;;;;;;2.80;1.48;;;;;;;9.29;70.49;99190.06;6257855;22;20082;-75
2022/04/12 00:35:58;;;;;;;5.70;1.30;;;;;;;9.19;70.36;99169.16;6258605;22;20010;-76
2022/04/12 00:38:24;;;;;;;2.03;1.38;;;;;;;9.06;70.28;99153.47;6232859;22;20014;-76
2022/04/12 00:40:50;;;;;;;2.25;1.33;;;;;;;9.17;70.47;99162.34;6284855;22;20007;-76
2022/04/12 00:43:19;;;;;;;3.13;1.52;;;;;;;9.16;70.79;99175.19;6286630;22;20053;-76
2022/04/12 00:45:49;;;;;;;4.45;1.30;;;;;;;9.16;70.35;99172.47;6284525;22;20335;-76
2022/04/12 00:48:17;;;;;;;1.50;1.25;;;;;;;9.14;70.70;99174.69;6257924;22;20010;-74
2022/04/12 00:50:43;;;;;;;2.25;1.50;;;;;;;8.97;71.50;99152.47;6284382;22;20031;-75
2022/04/12 00:53:09;;;;;;;4.03;1.67;;;;;;;9.06;71.36;99164.38;6286934;22;19996;-77
2022/04/12 00:55:36;;;;;;;1.38;1.25;;;;;;;9.02;71.25;99163.31;6283534;22;20016;-75
2022/04/12 00:58:07;;;;;;;2.47;1.70;;;;;;;9.03;71.45;99154.03;6258700;22;20029;-76
2022/04/12 01:00:34;;;;;;;2.70;1.63;;;;;;;8.99;71.66;99153.78;6258766;22;20026;-75
2022/04/12 01:03:00;;;;;;;1.85;1.40;;;;;;;8.88;71.35;99131.28;6258920;22;20007;-75
2022/04/12 01:05:27;;;;;;;1.67;1.08;;;;;;;8.96;71.59;99153.56;6288023;22;20006;-75
2022/04/12 01:07:53;;;;;;;3.13;1.67;;;;;;;8.94;72.11;99150.31;6260120;22;20361;-74
2022/04/12 01:10:22;;;;;;;1.30;1.20;;;;;;;8.80;71.96;99140.06;6285721;22;20004;-75
2022/04/12 01:12:51;;;;;;;2.55;1.30;;;;;;;8.84;72.15;99138.38;6282422;22;20091;-73
2022/04/12 01:15:19;;;;;;;2.03;1.40;;;;;;;8.89;72.32;99148.44;6282042;22;20015;-73
2022/04/12 01:17:45;;;;;;;2.60;1.20;;;;;;;8.85;72.32;99153.66;6280951;22;20003;-73
2022/04/12 01:20:13;;;;;;;2.55;1.65;;;;;;;8.86;72.42;99155.28;6282551;22;20026;-74
2022/04/12 01:22:59;;;;;;;1.65;1.27;;;;;;;8.85;72.53;99159.09;6283662;22;20016;-74
2022/04/12 01:25:25;;;;;;;4.78;2.03;;;;;;;8.84;72.40;99157.47;6252497;22;20022;-72
2022/04/12 01:27:51;;;;;;;1.75;1.38;;;;;;;8.87;72.70;99151.44;6284516;22;20023;-72
2022/04/12 01:30:17;;;;;;;2.55;1.67;;;;;;;8.86;72.53;99152.56;6283308;22;20007;-72
2022/04/12 01:32:42;;;;;;;5.78;1.95;;;;;;;8.88;72.69;99139.44;6278713;22;20007;-73
2022/04/12 01:35:08;;;;;;;5.07;2.03;;;;;;;8.89;73.18;99127.47;6281239;22;20000;-71
2022/04/12 01:37:34;;;;;;;5.55;1.90;;;;;;;8.93;73.01;99124.16;6277754;22;20008;-71
2022/04/12 01:39:59;;;;;;;3.30;1.90;;;;;;;8.96;72.73;99131.75;6279429;22;20034;-71
2022/04/12 01:42:25;;;;;;;2.15;1.73;;;;;;;8.99;73.16;99136.63;6251315;22;20012;-75
2022/04/12 01:44:51;;;;;;;2.00;1.45;;;;;;;9.04;73.17;99139.31;6255904;22;20011;-76
2022/04/12 01:47:17;;;;;;;2.00;1.35;;;;;;;9.05;72.56;99133.56;6282674;22;20091;-73
2022/04/12 01:49:43;;;;;;;3.47;2.05;;;;;;;9.07;72.35;99136.03;6229580;22;20035;-75
2022/04/12 01:52:10;;;;;;;2.50;2.10;;;;;;;9.09;73.60;99141.97;6255553;22;20007;-73
2022/04/12 01:54:36;;;;;;;3.67;2.33;;;;;;;9.09;72.99;99131.06;6252088;22;20006;-73
2022/04/12 01:57:02;;;;;;;2.83;2.03;;;;;;;9.09;73.17;99131.88;6276597;22;20016;-73
2022/04/12 01:59:28;;;;;;;1.63;1.52;;;;;;;9.09;73.34;99117.44;6278546;22;20002;-73
2022/04/12 02:01:53;;;;;;;2.05;1.35;;;;;;;9.14;72.84;99128.31;6280389;22;20023;-72
2022/04/12 02:04:19;;;;;;;2.83;1.67;;;;;;;9.17;72.59;99122.28;6281464;22;20059;-73
2022/04/12 02:06:44;;;;;;;1.58;1.38;;;;;;;9.21;73.15;99108.88;6229055;22;19999;-74
2022/04/12 02:09:10;;;;;;;3.00;1.40;;;;;;;9.23;73.08;99103.94;6281434;22;20031;-75
2022/04/12 02:11:35;;;;;;;2.75;2.00;;;;;;;9.30;72.92;99098.97;6254790;22;20023;-72
2022/04/12 02:14:01;;;;;;;3.55;1.85;;;;;;;9.37;73.44;99098.59;6255692;22;20008;-73
2022/04/12 02:16:26;;;;;;;3.70;1.85;;;;;;;9.39;73.17;99097.22;6254294;22;19999;-75
2022/04/12 02:18:52;;;;;;;6.13;1.88;;;;;;;9.43;72.81;99092.81;6255987;22;20011;-75
2022/04/12 02:21:17;;;;;;;2.40;1.80;;;;;;;9.50;72.59;99097.88;6281646;22;20008;-75
2022/04/12 02:23:43;;;;;;;2.42;1.95;;;;;;;9.59;73.45;99101.63;6229031;22;20382;-74
2022/04/12 02:26:08;;;;;;;3.65;2.40;;;;;;;9.64;73.33;99105.38;6281894;22;20094;-74
2022/04/12 02:28:34;;;;;;;4.18;2.55;;;;;;;9.76;72.59;99100.31;6283108;22;20066;-76
2022/04/12 02:30:59;;;;;;;4.65;2.60;;;;;;;9.84;72.55;99086.03;6280643;22;20095;-74
2022/04/12 02:33:25;;;;;;;3.38;2.50;;;;;;;9.91;72.77;99085.63;6282271;22;19996;-75
2022/04/12 02:35:50;;;;;;;3.42;2.00;;;;;;;9.98;72.39;99079.81;6256272;22;20003;-75
2022/04/12 02:38:16;;;;;;;3.88;2.25;;;;;;;10.06;72.59;99065.47;6283355;22;20018;-75
2022/04/12 02:40:42;;;;;;;3.28;1.90;;;;;;;10.14;72.45;99053.91;6230338;22;20506;-76
2022/04/12 02:43:07;;;;;;;6.20;2.50;;;;;;;10.19;72.31;99042.91;6257507;22;20011;-74
2022/04/12 02:45:33;;;;;;;3.80;2.60;;;;;;;10.25;72.11;99055.38;6281984;22;20095;-75
2022/04/12 02:47:58;;;;;;;4.47;2.25;;;;;;;10.27;72.05;99050.41;6291159;22;20008;-75
2022/04/12 02:50:24;;;;;;;2.92;1.95;;;;;;;10.31;72.43;99045.97;6254820;22;20008;-76
2022/04/12 02:52:49;;;;;;;3.58;2.05;;;;;;;10.34;71.70;99044.63;6231931;22;20098;-75
2022/04/12 02:55:15;;;;;;;4.10;2.25;;;;;;;10.34;71.57;99049.25;6256580;22;20370;-74
2022/04/12 02:57:41;;;;;;;2.10;1.73;;;;;;;10.24;72.39;99029.16;6254154;22;20026;-74
2022/04/12 03:00:15;;;;;;;4.95;2.45;;;;;;;10.27;72.17;99034.03;6229523;22;20024;-74
2022/04/12 03:02:40;;;;;;;6.35;3.05;;;;;;;10.14;72.28;99018.41;6280031;22;20425;-72
2022/04/12 03:05:06;;;;;;;4.25;2.70;;;;;;;10.09;72.62;99032.13;6251618;22;20008;-74
2022/04/12 03:07:32;;;;;;;2.78;2.10;;;;;;;10.05;72.08;99033.84;6227627;22;20015;-74
2022/04/12 03:09:57;;;;;;;5.15;1.95;;;;;;;10.04;72.80;99040.41;6279130;22;20008;-73
2022/04/12 03:12:23;;;;;;;4.05;1.98;;;;;;;9.99;72.69;99037.72;6279142;22;20008;-73
2022/04/12 03:14:48;;;;;;;3.40;2.47;;;;;;;10.03;72.86;99027.84;6276239;22;20011;-72
2022/04/12 03:17:14;;;;;;;5.05;3.13;;;;;;;10.13;72.55;99024.94;6223380;22;20042;-72
2022/04/12 03:19:39;;;;;;;5.18;2.60;;;;;;;10.14;72.91;99029.31;6251055;22;20034;-73
2022/04/12 03:22:05;;;;;;;3.53;2.45;;;;;;;10.21;72.54;99028.94;6276681;22;20004;-72
2022/04/12 03:24:31;;;;;;;3.55;2.58;;;;;;;10.29;72.23;99026.34;6249575;22;20090;-71
2022/04/12 03:26:57;;;;;;;5.45;2.78;;;;;;;10.32;72.07;99022.19;6280656;22;20014;-73
2022/04/12 03:29:23;;;;;;;4.20;2.67;;;;;;;10.41;71.77;99028.66;6250591;22;20014;-72
2022/04/12 03:31:48;;;;;;;4.10;2.72;;;;;;;10.47;72.17;99026.63;6252493;22;20090;-73
2022/04/12 03:34:14;;;;;;;5.03;3.05;;;;;;;10.50;71.72;99033.41;6253506;22;20000;-75
2022/04/12 03:36:39;;;;;;;4.93;2.80;;;;;;;10.51;71.66;99037.78;6252184;22;20069;-74
2022/04/12 03:39:04;;;;;;;7.95;3.30;;;;;;;10.55;71.74;99056.00;6228154;22;20022;-72
2022/04/12 03:41:30;;;;;;;4.68;2.95;;;;;;;10.55;71.67;99056.00;6253147;22;20030;-74
2022/04/12 03:43:56;;;;;;;3.47;2.38;;;;;;;10.58;71.90;99060.88;6250606;22;20003;-72
2022/04/12 03:46:21;;;;;;;2.45;2.00;;;;;;;10.59;71.88;99056.22;6282938;22;20003;-74
2022/04/12 03:48:47;;;;;;;2.70;2.20;;;;;;;10.60;71.69;99063.31;6281714;22;20091;-74
2022/04/12 03:51:13;;;;;;;2.72;1.77;;;;;;;10.64;71.75;99056.13;6228600;22;20058;-73
2022/04/12 03:53:39;;;;;;;3.40;1.90;;;;;;;10.62;71.26;99048.22;6283460;22;20000;-74
2022/04/12 03:56:07;;;;;;;1.95;1.48;;;;;;;10.65;71.29;99044.91;6281517;22;20026;-74
2022/04/12 03:58:39;;;;;;;4.15;2.13;;;;;;;10.73;71.42;99056.25;6254123;22;20018;-75
2022/04/12 04:01:05;;;;;;;4.38;2.05;;;;;;;10.77;71.62;99062.75;6280965;22;20011;-75
2022/04/12 04:03:31;;;;;;;4.35;2.65;;;;;;;10.80;71.66;99062.16;6229194;22;20015;-75
2022/04/12 04:05:57;;;;;;;4.53;2.47;;;;;;;10.79;71.51;99038.63;6255758;22;20039;-75
2022/04/12 04:08:25;;;;;;;5.07;3.08;;;;;;;10.77;71.46;99040.88;6280022;22;20000;-74
2022/04/12 04:10:51;;;;;;;3.35;2.25;;;;;;;10.86;71.57;99071.88;6283235;22;20068;-72
2022/04/12 04:13:17;;;;;;;3.25;2.50;;;;;;;10.82;71.78;99068.13;6252686;22;20011;-71
2022/04/12 04:15:43;;;;;;;4.63;3.15;;;;;;;10.79;71.87;99057.78;6279355;22;20008;-73
2022/04/12 04:18:08;;;;;;;4.22;2.30;;;;;;;10.70;71.87;99056.84;6280786;22;20034;-72
2022/04/12 04:20:34;;;;;;;3.33;2.38;;;;;;;10.65;71.55;99061.28;6254215;22;20007;-72
2022/04/12 04:23:00;;;;;;;2.72;1.80;;;;;;;10.54;71.90;99031.72;6282643;22;20003;-74
2022/04/12 04:25:26;;;;;;;8.80;3.10;;;;;;;10.49;72.41;99018.94;6252810;22;20125;-71
2022/04/12 04:27:52;;;;;;;8.65;3.53;;;;;;;10.44;72.79;99011.66;6278295;22;20000;-72
2022/04/12 04:30:19;;;;;;;8.02;3.50;;;;;;;10.39;72.82;99000.00;6280764;22;20004;-74
2022/04/12 04:32:45;;;;;;;5.68;2.63;;;;;;;10.41;73.03;99014.97;6254636;22;20346;-72
2022/04/12 04:35:11;;;;;;;5.20;2.53;;;;;;;10.40;73.24;99020.75;6282136;22;20015;-73
2022/04/12 04:37:44;;;;;;;4.90;3.00;;;;;;;10.33;73.24;99026.56;6232493;22;20098;-73
2022/04/12 04:40:13;;;;;;;4.80;3.00;;;;;;;10.26;73.24;99021.47;6280348;22;20014;-74
2022/04/12 04:42:39;;;;;;;6.03;3.00;;;;;;;10.22;73.63;99017.72;6283910;22;20027;-72
2022/04/12 04:45:06;;;;;;;3.38;2.47;;;;;;;10.16;73.53;99010.69;6282185;22;20103;-73
2022/04/12 04:47:31;;;;;;;4.25;2.40;;;;;;;10.14;73.77;99018.41;6256472;22;20027;-74
2022/04/12 04:49:57;;;;;;;5.88;2.65;;;;;;;10.16;73.71;99021.63;6254618;22;20016;-75
2022/04/12 04:52:23;;;;;;;3.20;2.58;;;;;;;10.19;73.94;99021.06;6284351;22;20004;-73
2022/04/12 04:54:48;;;;;;;7.10;2.75;;;;;;;10.25;73.63;99008.94;6256133;22;20000;-74
2022/04/12 04:57:15;;;;;;;3.80;2.40;;;;;;;10.34;73.33;99011.00;6254760;22;20134;-74
2022/04/12 04:59:41;;;;;;;4.95;2.72;;;;;;;10.37;73.17;99016.69;6227684;22;20011;-74
2022/04/12 05:02:06;;;;;;;2.97;2.22;;;;;;;10.41;72.68;99022.34;6281237;22;20434;-75
2022/04/12 05:04:32;;;;;;;5.05;2.67;;;;;;;10.40;72.54;99020.75;6280875;22;20007;-72
2022/04/12 05:06:57;;;;;;;7.20;2.60;;;;;;;10.46;73.19;99019.53;6281049;22;20087;-73
2022/04/12 05:09:22;;;;;;;3.47;2.45;;;;;;;10.52;72.86;99023.81;6284826;22;20035;-74
2022/04/12 05:11:50;;;;;;;8.07;2.83;;;;;;;10.55;73.10;99017.72;6255669;22;20008;-73
2022/04/12 05:14:18;;;;;;;5.93;2.83;;;;;;;10.62;72.38;99023.63;6230020;22;20007;-73
2022/04/12 05:16:44;;;;;;;3.45;2.67;;;;;;;10.67;72.24;99024.66;6253075;22;20035;-70
2022/04/12 05:19:09;;;;;;;4.85;2.45;;;;;;;10.70;72.59;99021.31;6255817;22;20073;-71
2022/04/12 05:21:35;;;;;;;4.47;2.60;;;;;;;10.71;72.47;99020.22;6281395;22;20012;-71
2022/04/12 05:24:00;;;;;;;6.68;2.47;;;;;;;10.76;72.22;99028.31;6253021;22;20026;-72
2022/04/12 05:26:25;;;;;;;2.72;2.10;;;;;;;10.78;72.20;99017.91;6206920;22;20087;-71
2022/04/12 05:28:51;;;;;;;2.85;2.03;;;;;;;10.83;72.17;99023.25;6260240;22;20007;-71
2022/04/12 05:31:16;;;;;;;2.75;2.03;;;;;;;10.87;71.84;99029.75;6286512;22;20007;-73
2022/04/12 05:33:42;;;;;;;2.83;1.58;;;;;;;10.92;71.83;99037.88;6259291;22;20042;-73
2022/04/12 05:36:07;;;;;;;5.03;2.30;;;;;;;10.98;71.58;99041.28;6289856;22;20018;-74
2022/04/12 05:38:33;;;;;;;2.40;2.00;;;;;;;11.05;71.96;99035.44;6252819;22;20011;-72
2022/04/12 05:40:58;;;;;;;4.63;1.77;;;;;;;11.08;71.74;99023.88;6253566;22;20075;-72
2022/04/12 05:43:24;;;;;;;3.70;1.40;;;;;;;11.13;72.02;99029.28;6227430;22;20045;-70
2022/04/12 05:45:49;;;;;;;3.20;1.40;;;;;;;11.16;71.69;99036.88;6251587;22;20008;-73
2022/04/12 05:48:15;;;;;;;3.15;2.10;;;;;;;11.19;72.08;99041.72;6280186;22;19999;-71
2022/04/12 05:50:40;;;;;;;2.92;1.95;;;;;;;11.20;72.39;99051.56;6226486;22;20043;-72
2022/04/12 05:53:06;;;;;;;5.07;2.15;;;;;;;11.19;72.15;99047.19;6253820;22;20053;-72
2022/04/12 05:55:33;;;;;;;3.28;1.80;;;;;;;11.18;72.35;99053.78;6252594;22;20026;-71
2022/04/12 05:58:01;;;;;;;3.50;1.90;;;;;;;11.20;72.52;99065.25;6280273;22;20000;-71
2022/04/12 06:00:29;;;;;;;5.10;1.95;;;;;;;11.22;72.80;99079.44;6282065;22;20027;-73
2022/04/12 06:02:55;;;;;;;5.10;2.70;;;;;;;11.25;73.59;99089.75;6203954;22;20431;-72
2022/04/12 06:05:22;;;;;;;4.53;2.65;;;;;;;11.21;73.45;99094.22;6279814;22;20018;-69
2022/04/12 06:07:48;;;;;;;6.25;2.67;;;;;;;11.17;74.01;99104.97;6251757;22;20680;-72
2022/04/12 06:10:16;;;;;;;5.82;3.03;;;;;;;11.25;74.19;99122.59;6251756;22;20413;-72
2022/04/12 06:12:42;;;;;;;5.63;2.90;;;;;;;11.33;74.08;99119.16;6280388;22;20659;-70
2022/04/12 06:15:08;;;;;;;4.00;2.42;;;;;;;11.37;74.02;99118.56;6280424;22;20137;-71
2022/04/12 06:17:35;;;;;;;4.68;2.70;;;;;;;11.42;74.64;99116.53;6251047;22;20091;-74
2022/04/12 06:20:06;;;;;;;8.93;2.95;;;;;;;11.43;73.94;99112.66;6281373;22;20010;-72
2022/04/12 06:22:32;;;;;;;3.17;2.45;;;;;;;11.45;73.98;99112.41;6254602;22;20082;-74
2022/04/12 06:24:58;;;;;;;7.22;2.83;;;;;;;11.46;74.12;99105.78;6287110;22;19992;-73
2022/04/12 06:27:46;;;;;;;6.68;2.72;;;;;;;11.50;74.36;99096.66;6256872;22;20011;-73
2022/04/12 06:30:14;;;;;;;6.53;2.28;;;;;;;11.54;74.20;99099.59;6281541;22;20610;-70
2022/04/12 06:32:41;;;;;;;2.67;2.13;;;;;;;11.53;74.19;99100.72;6280543;22;20012;-71
2022/04/12 06:35:09;;;;;;;3.28;1.98;;;;;;;11.54;73.89;99107.81;6280844;22;19996;-71
2022/04/12 06:37:47;;;;;;;;;;;;;;;;;;;;;
2022/04/12 06:40:16;;;;;;;3.95;2.33;;;;;;;11.58;74.60;99130.75;6277518;22;20090;-71
2022/04/12 06:42:42;;;;;;;6.60;2.20;;;;;;;11.52;74.26;99126.47;6279057;22;20010;-71
2022/04/12 06:45:09;;;;;;;4.30;1.98;;;;;;;11.50;75.17;99117.75;6197866;22;20008;-71
2022/04/12 06:47:35;;;;;;;4.95;2.45;;;;;;;11.44;75.84;99116.22;6253456;22;19999;-72
2022/04/12 06:50:01;;;;;;;2.95;2.05;;;;;;;11.37;76.08;99118.56;6250351;22;20386;-71
2022/04/12 06:52:26;;;;;;;13.85;2.67;;;;;;;11.24;76.61;99120.97;6226163;22;20014;-74
2022/04/12 06:54:52;;;;;;;4.38;2.55;;;;;;;11.13;76.89;99130.50;6251418;22;20462;-73
2022/04/12 06:57:17;;;;;;;3.95;2.40;;;;;;;11.08;78.00;99133.31;6279453;22;20069;-70
2022/04/12 06:59:44;;;;;;;4.82;2.45;;;;;;;11.03;78.53;99126.00;6274871;22;19996;-70
2022/04/12 07:02:10;;;;;;;3.33;1.98;;;;;;;10.98;78.66;99126.09;6253594;22;20007;-70
2022/04/12 07:04:36;;;;;;;5.05;2.40;;;;;;;10.89;79.33;99109.56;6246887;22;20010;-71
2022/04/12 07:07:02;;;;;;;4.25;2.40;;;;;;;10.91;79.41;99112.03;6279338;22;20051;-73
2022/04/12 07:09:29;;;;;;;4.22;2.00;;;;;;;10.93;79.54;99121.53;6253773;22;20015;-70
2022/04/12 07:11:58;;;;;;;4.50;2.17;;;;;;;10.91;79.76;99112.03;6222638;22;20004;-70
2022/04/12 07:14:25;;;;;;;6.72;2.80;;;;;;;10.93;79.79;99121.53;6275849;22;20044;-70
2022/04/12 07:16:53;;;;;;;5.10;2.50;;;;;;;10.96;80.31;99134.59;6274737;22;20011;-71
2022/04/12 07:19:19;;;;;;;7.68;3.30;;;;;;;10.95;80.66;99130.25;6245591;22;20023;-69
2022/04/12 07:21:44;;;;;;;5.38;2.72;;;;;;;10.98;80.63;99146.06;6277200;22;20000;-71
2022/04/12 07:24:10;;;;;;;8.70;3.53;;;;;;;10.99;80.87;99139.50;6275686;22;20018;-70
2022/04/12 07:26:36;;;;;;;7.35;3.53;;;;;;;11.04;81.11;99154.16;6277295;22;20022;-71
2022/04/12 07:29:02;;;;;;;7.10;4.05;;;;;;;11.05;81.32;99164.81;6273467;22;20007;-71
2022/04/12 07:31:28;;;;;;;8.38;4.47;;;;;;;11.06;80.83;99168.38;6248283;22;20003;-70
2022/04/12 07:33:54;;;;;;;10.43;5.10;;;;;;;11.09;81.04;99152.16;6273161;22;20442;-71
2022/04/12 07:36:20;;;;;;;11.68;5.20;;;;;;;11.13;81.17;99135.97;6272617;22;20007;-70
2022/04/12 07:38:45;;;;;;;8.70;4.45;;;;;;;11.15;81.53;99142.75;6274514;22;20036;-71
2022/04/12 07:41:11;;;;;;;10.00;4.78;;;;;;;11.18;81.50;99127.66;6218140;22;20004;-70
2022/04/12 07:43:37;;;;;;;5.43;3.17;;;;;;;11.27;81.80;99119.56;6243725;22;20011;-71
2022/04/12 07:46:03;;;;;;;8.60;3.70;;;;;;;11.33;81.72;99113.69;6247635;22;20004;-71
2022/04/12 07:48:28;;;;;;;7.43;2.90;;;;;;;11.43;81.51;99111.88;6273725;22;20004;-72
2022/04/12 07:50:54;;;;;;;3.15;1.88;;;;;;;11.49;81.02;99108.75;6249414;22;20038;-69
2022/04/12 07:53:20;;;;;;;5.07;2.70;;;;;;;11.53;81.47;99089.75;6250317;22;20015;-70
2022/04/12 07:55:45;;;;;;;6.28;3.03;;;;;;;11.59;81.32;99093.22;6222351;22;20027;-70
2022/04/12 07:58:11;;;;;;;5.53;2.83;;;;;;;11.62;81.16;99096.16;6248763;22;20016;-71
2022/04/12 08:00:36;;;;;;;3.53;2.30;;;;;;;11.66;81.16;99099.09;6224462;22;20022;-68
2022/04/12 08:03:02;;;;;;;5.38;2.13;;;;;;;11.76;81.27;99098.88;6246679;22;20342;-69
2022/04/12 08:05:27;;;;;;;5.28;2.10;;;;;;;11.81;80.71;99104.25;6248980;22;20014;-71
2022/04/12 08:07:53;;;;;;;2.10;1.38;;;;;;;11.87;80.44;99113.16;6222693;22;20430;-71
2022/04/12 08:10:19;;;;;;;3.75;2.22;;;;;;;11.91;80.41;99118.84;6221678;22;20011;-70
2022/04/12 08:12:46;;;;;;;11.10;3.17;;;;;;;11.93;80.37;99133.91;6275488;22;20012;-71
2022/04/12 08:15:13;;;;;;;5.60;2.20;;;;;;;11.97;80.76;99132.16;6276218;22;20000;-71
2022/04/12 08:17:39;;;;;;;5.97;2.38;;;;;;;12.02;80.10;99134.78;6275950;22;20000;-72
2022/04/12 08:20:06;;;;;;;4.95;2.33;;;;;;;12.02;80.32;99118.34;6247937;22;20010;-70
2022/04/12 08:22:35;;;;;;;5.22;2.72;;;;;;;12.16;80.31;99101.06;6249363;22;20007;-70
2022/04/12 08:25:01;;;;;;;8.30;3.67;;;;;;;12.34;80.09;99104.78;6275583;22;20007;-70
2022/04/12 08:27:26;;;;;;;5.57;2.50;;;;;;;12.43;79.24;99097.41;6275772;22;20011;-71
2022/04/12 08:29:52;;;;;;;6.72;2.67;;;;;;;12.52;78.87;99094.75;6249068;22;20034;-70
2022/04/12 08:32:18;;;;;;;2.45;1.92;;;;;;;12.71;79.28;99084.38;6249702;22;20003;-71
2022/04/12 08:34:44;;;;;;;4.10;1.77;;;;;;;12.86;78.54;99085.91;6276726;22;20030;-69
2022/04/12 08:37:12;;;;;;;5.97;2.83;;;;;;;12.91;78.02;99109.69;6250379;22;20012;-71
2022/04/12 08:39:38;;;;;;;9.48;3.42;;;;;;;12.77;77.64;99130.91;6249982;22;20038;-72
2022/04/12 08:42:05;;;;;;;6.22;2.65;;;;;;;12.62;78.21;99135.63;6250705;22;19999;-70
2022/04/12 08:44:32;;;;;;;2.30;1.77;;;;;;;12.53;79.18;99148.47;6248859;22;20091;-71
2022/04/12 08:46:58;;;;;;;5.60;2.63;;;;;;;12.46;79.36;99145.34;6278607;22;20106;-72
2022/04/12 08:49:24;;;;;;;13.88;3.00;;;;;;;12.28;79.76;99139.72;6278820;22;20125;-70
2022/04/12 08:51:50;;;;;;;6.90;3.20;;;;;;;12.18;79.95;99137.19;6276268;22;20109;-70
2022/04/12 08:54:19;;;;;;;3.47;1.90;;;;;;;12.21;80.74;99144.81;6279167;22;20019;-71
2022/04/12 08:56:48;;;;;;;7.93;3.08;;;;;;;12.23;80.56;99139.81;6251691;22;20031;-70
2022/04/12 08:59:15;;;;;;;5.65;2.30;;;;;;;12.15;80.81;99133.13;6279969;22;20142;-70
2022/04/12 09:01:41;;;;;;;4.88;2.00;;;;;;;12.11;80.92;99137.59;6251241;22;20008;-71
2022/04/12 09:04:07;;;;;;;10.45;2.80;;;;;;;12.17;80.96;99124.59;6250037;22;20067;-72
2022/04/12 09:06:33;;;;;;;3.75;2.20;;;;;;;12.42;80.67;99133.38;6277361;22;20004;-71
2022/04/12 09:09:18;;;;;;;8.27;2.53;;;;;;;12.90;79.18;99136.28;6249882;22;20011;-69
2022/04/12 09:11:54;;;;;;;7.53;2.72;;;;;;;13.50;78.02;99136.16;6251519;22;20403;-70
2022/04/12 09:14:19;;;;;;;5.53;2.83;;;;;;;14.48;75.94;99143.16;6250264;22;20487;-71
2022/04/12 09:16:46;;;;;;;11.02;3.15;;;;;;;15.84;72.43;99144.66;6279562;22;20003;-71
2022/04/12 09:19:12;;;;;;;5.90;1.90;;;;;;;17.38;67.87;99161.78;6280696;22;20007;-72
2022/04/12 09:21:46;;;;;;;4.38;1.50;;;;;;;17.39;65.92;99164.19;6281027;22;20008;-69
2022/04/12 09:24:21;;;;;;;6.85;2.58;;;;;;;16.66;66.12;99170.22;6278730;22;20352;-70
2022/04/12 09:26:57;;;;;;;9.60;3.20;;;;;;;16.55;67.16;99170.63;6253853;22;20003;-71
2022/04/12 09:29:30;;;;;;;8.05;2.53;;;;;;;17.30;66.21;99176.47;6281075;22;19995;-70
2022/04/12 09:31:59;;;;;;;6.82;2.72;;;;;;;17.94;62.05;99173.13;6280546;22;20010;-70
2022/04/12 09:34:25;;;;;;;9.65;2.95;;;;;;;17.28;63.79;99179.56;6281920;22;20006;-71
2022/04/12 09:36:51;;;;;;;4.97;1.95;;;;;;;16.15;66.66;99179.34;6251755;22;20086;-69
2022/04/12 09:39:21;;;;;;;8.70;2.33;;;;;;;15.45;68.84;99184.31;6280180;22;20069;-72
2022/04/12 09:41:49;;;;;;;9.93;2.33;;;;;;;15.35;70.43;99185.50;6279023;22;20004;-70
2022/04/12 09:44:20;;;;;;;6.70;2.90;;;;;;;15.01;71.13;99192.72;6276038;22;20035;-71
2022/04/12 09:46:45;;;;;;;11.90;2.33;;;;;;;14.72;72.56;99199.69;6250805;22;20014;-71
2022/04/12 09:49:11;;;;;;;6.50;2.70;;;;;;;14.49;nan;99190.72;6278888;22;20117;-71
2022/04/12 09:51:37;;;;;;;8.98;2.75;;;;;;;14.45;74.14;99211.75;6278996;22;20007;-71
2022/04/12 09:54:08;;;;;;;5.65;2.30;;;;;;;14.48;74.22;99208.34;6253773;22;20011;-71
2022/04/12 09:56:35;;;;;;;8.82;2.65;;;;;;;14.52;74.22;99211.28;6277416;22;20052;-71
2022/04/12 09:59:03;;;;;;;5.28;3.13;;;;;;;14.39;74.53;99219.34;6278471;22;20036;-71
2022/04/12 10:01:31;;;;;;;11.77;3.80;;;;;;;14.20;75.77;99227.06;6278800;22;20017;-70
2022/04/12 10:03:59;;;;;;;10.20;3.75;;;;;;;14.00;76.29;99215.53;6280276;22;20011;-70
2022/04/12 10:06:27;;;;;;;10.13;3.85;;;;;;;13.99;76.30;99208.41;6280944;22;20003;-74
2022/04/12 10:08:54;;;;;;;10.40;3.47;;;;;;;14.02;76.92;99212.44;6278096;22;20007;-71
2022/04/12 10:11:21;;;;;;;11.63;4.20;;;;;;;14.07;76.80;99199.38;6279825;22;20500;-71
2022/04/12 10:13:47;;;;;;;10.93;2.88;;;;;;;14.07;76.52;99204.06;6227482;22;20058;-71
2022/04/12 10:16:16;;;;;;;7.97;2.33;;;;;;;14.22;76.29;99216.56;6251770;22;20512;-71
2022/04/12 10:18:42;;;;;;;17.10;3.50;;;;;;;14.22;76.40;99216.56;6252304;22;20304;-72
2022/04/12 10:21:09;;;;;;;10.60;2.40;;;;;;;14.29;76.12;99216.91;6252128;22;20049;-71
2022/04/12 10:23:35;;;;;;;18.25;3.10;;;;;;;14.28;75.95;99220.78;6280088;22;20443;-72
2022/04/12 10:26:02;;;;;;;10.35;3.00;;;;;;;14.24;75.73;99208.81;6279143;22;20003;-72
2022/04/12 10:28:29;;;;;;;5.95;2.22;;;;;;;14.33;75.58;99206.88;6280266;22;20031;-71
2022/04/12 10:31:03;;;;;;;12.65;2.75;;;;;;;14.35;74.94;99204.59;6253916;22;20038;-71
2022/04/12 10:33:29;;;;;;;11.95;2.40;;;;;;;14.38;74.87;99205.91;6278546;22;20003;-72
2022/04/12 10:35:55;;;;;;;11.38;2.25;;;;;;;14.43;75.26;99216.78;6281761;22;20015;-71
2022/04/12 10:38:37;;;;;;;13.55;3.08;;;;;;;14.37;74.88;99212.53;6279118;22;20011;-73
2022/04/12 10:41:12;;;;;;;15.48;3.10;;;;;;;14.31;75.68;99198.16;6276874;22;20026;-71
2022/04/12 10:43:40;;;;;;;10.80;2.38;;;;;;;14.40;75.44;99190.72;6277460;22;20523;-72
2022/04/12 10:46:08;;;;;;;6.72;2.40;;;;;;;14.48;75.42;99187.19;6278970;22;19999;-71
2022/04/12 10:48:34;;;;;;;12.77;3.00;;;;;;;14.84;74.06;99194.31;6279290;22;19999;-72
2022/04/12 10:51:04;;;;;;;14.88;2.75;;;;;;;14.99;73.45;99194.97;6279662;22;20094;-70
2022/04/12 10:53:36;;;;;;;14.32;2.90;;;;;;;14.89;73.24;99200.78;6253306;22;20003;-72
2022/04/12 10:56:21;;;;;;;13.07;2.50;;;;;;;14.84;73.48;99197.06;6279850;22;20059;-74
2022/04/12 10:58:49;;;;;;;10.00;2.88;;;;;;;14.84;73.13;99188.81;6277119;22;20002;-72
2022/04/12 11:01:35;;;;;;;11.98;2.10;;;;;;;14.69;73.57;99194.81;6278533;22;20035;-70
2022/04/12 11:04:03;;;;;;;8.50;2.25;;;;;;;14.42;74.53;99182.94;6278445;22;20014;-73
2022/04/12 11:06:31;;;;;;;20.80;3.55;;;;;;;14.42;74.69;99182.16;6280988;22;20029;-70
2022/04/12 11:09:07;;;;;;;9.68;3.28;;;;;;;14.35;75.03;99188.09;6278356;22;20494;-72
2022/04/12 11:11:52;;;;;;;14.95;2.67;;;;;;;14.51;74.88;99190.41;6279191;22;20103;-72
2022/04/12 11:14:36;;;;;;;13.25;2.35;;;;;;;14.78;73.80;99195.63;6279484;22;20426;-72
2022/04/12 11:17:07;;;;;;;9.70;2.55;;;;;;;14.93;73.17;99197.06;6254603;22;20007;-72
2022/04/12 11:20:00;;;;;;;11.73;2.92;;;;;;;15.34;72.02;99195.69;6277484;22;20000;-72
2022/04/12 11:22:41;;;;;;;24.52;4.10;;;;;;;15.68;70.39;99187.66;6275545;22;20004;-73
2022/04/12 11:25:16;;;;;;;15.35;3.00;;;;;;;15.98;69.20;99196.00;6278985;22;20075;-71
2022/04/12 11:27:42;;;;;;;14.52;2.83;;;;;;;16.30;68.75;99193.72;6280091;22;20679;-72
2022/04/12 11:30:13;;;;;;;10.60;2.63;;;;;;;17.13;66.41;99189.31;6251076;22;20014;-72
2022/04/12 11:32:38;;;;;;;11.65;2.63;;;;;;;17.95;64.27;99194.09;6223894;22;20011;-72
2022/04/12 11:35:04;;;;;;;21.27;3.95;;;;;;;18.67;61.33;99201.84;6280400;22;20074;-71
2022/04/12 11:37:30;;;;;;;12.13;3.03;;;;;;;18.74;60.65;99203.22;6279038;22;20317;-72
2022/04/12 11:39:55;;;;;;;12.75;3.20;;;;;;;18.25;60.68;99204.94;6280052;22;20061;-72